Map

Track Data

SID SEASON NUMBER BASIN SUBBASIN NAME ISO_TIME NATURE LAT LON WMO_WIND WMO_PRES WMO_AGENCY TRACK_TYPE DIST2LAND LANDFALL IFLAG USA_AGENCY USA_ATCF_ID USA_LAT USA_LON USA_RECORD USA_STATUS USA_WIND USA_PRES USA_SSHS USA_R34_NE USA_R34_SE USA_R34_SW USA_R34_NW USA_R50_NE USA_R50_SE USA_R50_SW USA_R50_NW USA_R64_NE USA_R64_SE USA_R64_SW USA_R64_NW USA_POCI USA_ROCI USA_RMW USA_EYE TOKYO_LAT TOKYO_LON TOKYO_GRADE TOKYO_WIND TOKYO_PRES TOKYO_R50_DIR TOKYO_R50_LONG TOKYO_R50_SHORT TOKYO_R30_DIR TOKYO_R30_LONG TOKYO_R30_SHORT TOKYO_LAND CMA_LAT CMA_LON CMA_CAT CMA_WIND CMA_PRES HKO_LAT HKO_LON HKO_CAT HKO_WIND HKO_PRES NEWDELHI_LAT NEWDELHI_LON NEWDELHI_GRADE NEWDELHI_WIND NEWDELHI_PRES NEWDELHI_CI NEWDELHI_DP NEWDELHI_POCI REUNION_LAT REUNION_LON REUNION_TYPE REUNION_WIND REUNION_PRES REUNION_TNUM REUNION_CI REUNION_RMW REUNION_R34_NE REUNION_R34_SE REUNION_R34_SW REUNION_R34_NW REUNION_R50_NE REUNION_R50_SE REUNION_R50_SW REUNION_R50_NW REUNION_R64_NE REUNION_R64_SE REUNION_R64_SW REUNION_R64_NW BOM_LAT BOM_LON BOM_TYPE BOM_WIND BOM_PRES BOM_TNUM BOM_CI BOM_RMW BOM_R34_NE BOM_R34_SE BOM_R34_SW BOM_R34_NW BOM_R50_NE BOM_R50_SE BOM_R50_SW BOM_R50_NW BOM_R64_NE BOM_R64_SE BOM_R64_SW BOM_R64_NW BOM_ROCI BOM_POCI BOM_EYE BOM_POS_METHOD BOM_PRES_METHOD NADI_LAT NADI_LON NADI_CAT NADI_WIND NADI_PRES WELLINGTON_LAT WELLINGTON_LON WELLINGTON_WIND WELLINGTON_PRES DS824_LAT DS824_LON DS824_STAGE DS824_WIND DS824_PRES TD9636_LAT TD9636_LON TD9636_STAGE TD9636_WIND TD9636_PRES TD9635_LAT TD9635_LON TD9635_WIND TD9635_PRES TD9635_ROCI NEUMANN_LAT NEUMANN_LON NEUMANN_CLASS NEUMANN_WIND NEUMANN_PRES MLC_LAT MLC_LON MLC_CLASS MLC_WIND MLC_PRES USA_GUST BOM_GUST BOM_GUST_PER REUNION_GUST REUNION_GUST_PER USA_SEAHGT USA_SEARAD_NE USA_SEARAD_SE USA_SEARAD_SW USA_SEARAD_NW STORM_SPEED STORM_DIR
1978324S10097 1979 126 SI WA NOT_NAMED 1978-11-19 12:00:00 TS -10.2000 97.0000 main 908 908 O________OO_O_ jtwc_sh SH011979 -10.2000 97.0000 30 -1 -10.2000 97.0000 TC 30 -10.2000 97.0000 1 30 -10.2000 97.0000 TC 30 4 211
1978324S10097 1979 126 SI WA NOT_NAMED 1978-11-19 15:00:00 TS -10.3518 96.9062 main 932 932 P________PP_P_ SH011979 -10.3425 96.9276 32 -1 -10.3425 96.9276 TC 32 -10.3072 96.9142 1 -10.4151 96.8552 TC 30 4 216
1978324S10097 1979 126 SI WA NOT_NAMED 1978-11-19 18:00:00 TS -10.5129 96.7707 main 947 947 O________OP_O_ jtwc_sh SH011979 -10.5000 96.8000 35 0 -10.5000 96.8000 TC 35 -10.4516 96.7829 1 -10.6000 96.7000 TC 30 5 225
1978324S10097 1979 126 SI WA NOT_NAMED 1978-11-19 21:00:00 TS -10.7050 96.5511 main 979 979 P________PP_P_ SH011979 -10.6974 96.5672 35 0 -10.6974 96.5672 TC 35 -10.6702 96.5602 1 -10.7549 96.5097 TC 32 7 229
1978324S10097 1979 126 SI WA NOT_NAMED 1978-11-20 00:00:00 TS -11.0000 96.2000 main 1033 1033 O________OO_O_ jtwc_sh SH011979 -11.0000 96.2000 35 0 -11.0000 96.2000 TC 35 -11.0000 96.2000 2 -11.0000 96.2000 TC 35 11 228
1978324S10097 1979 126 SI WA NOT_NAMED 1978-11-20 03:00:00 TS -11.4652 95.6875 main 1111 1111 P________PP_P_ SH011979 -11.4701 95.6877 37 0 -11.4701 95.6877 TC 37 -11.4580 95.6796 2 -11.4626 95.6952 TC 35 15 227
1978324S10097 1979 126 SI WA NOT_NAMED 1978-11-20 06:00:00 TS -11.9954 95.0933 main 1196 1196 O________OP_O_ jtwc_sh SH011979 -12.0000 95.1000 40 0 -12.0000 95.1000 TC 40 -11.9817 95.0730 2 -12.0000 95.1000 TC 35 16 229
1978324S10097 1979 126 SI WA NOT_NAMED 1978-11-20 09:00:00 TS -12.5050 94.4782 main 1281 1281 P________PP_P_ SH011979 -12.5102 94.4753 40 0 -12.5102 94.4753 TC 40 -12.4894 94.4795 2 -12.5102 94.4828 TC 37 14 230
1978324S10097 1979 126 SI WA NOT_NAMED 1978-11-20 12:00:00 TS -12.9000 94.0000 main 1351 1351 O________OO_O_ jtwc_sh SH011979 -12.9000 94.0000 40 0 -12.9000 94.0000 TC 40 -12.9000 94.0000 2 40 -12.9000 94.0000 TC 40 8 227
1978324S10097 1979 126 SI WA NOT_NAMED 1978-11-20 15:00:00 TS -13.0628 93.8675 main 1375 1375 P________PP_P_ SH011979 -13.0523 93.8897 40 0 -13.0523 93.8897 TC 40 -13.0943 93.8584 2 -13.0523 93.8322 TC 37 3 211
1978324S10097 1979 126 SI WA NOT_NAMED 1978-11-20 18:00:00 TS -13.1220 93.8570 main 1375 1375 O________OP_O_ jtwc_sh SH011979 -13.1000 93.9000 40 0 -13.1000 93.9000 TC 40 -13.1881 93.8280 2 -13.1000 93.8000 TC 35 2 200
1978324S10097 1979 126 SI WA NOT_NAMED 1978-11-20 21:00:00 TS -13.2018 93.8114 main 1391 1391 P________PP_P_ SH011979 -13.1922 93.8399 40 0 -13.1922 93.8399 TC 40 -13.2379 93.7836 2 -13.1847 93.7823 TC 35 3 234
1978324S10097 1979 126 SI WA NOT_NAMED 1978-11-21 00:00:00 TS -13.3000 93.6000 main 1414 1414 O________OO_O_ jtwc_sh SH011979 -13.3000 93.6000 40 0 -13.3000 93.6000 TC 40 -13.3000 93.6000 2 -13.3000 93.6000 TC 35 8 251
1978324S10097 1979 126 SI WA NOT_NAMED 1978-11-21 03:00:00 TS -13.4534 93.0467 main 1472 1472 P________PP_P_ SH011979 -13.4353 93.0250 40 0 -13.4353 93.0250 TC 40 -13.4503 93.1043 2 -13.4928 93.0327 TC 35 13 255
1978324S10097 1979 126 SI WA NOT_NAMED 1978-11-21 06:00:00 TS -13.6303 92.3394 main 1518 1518 O________OP_O_ jtwc_sh SH011979 -13.6000 92.3000 40 0 -13.6000 92.3000 TC 40 -13.6213 92.4577 2 -13.7000 92.3000 TC 35 14 255
1978324S10097 1979 126 SI WA NOT_NAMED 1978-11-21 09:00:00 TS -13.8214 91.6762 main 1570 1570 P________PP_P_ SH011979 -13.8073 91.6576 40 0 -13.8073 91.6576 TC 40 -13.8065 91.7322 2 -13.8648 91.6574 TC 37 14 254
1978324S10097 1979 126 SI WA NOT_NAMED 1978-11-21 12:00:00 TS -14.0000 91.0000 main 1629 1629 O________OO_O_ jtwc_sh SH011979 -14.0000 91.0000 40 0 -14.0000 91.0000 TC 40 -14.0000 91.0000 2 40 -14.0000 91.0000 TC 40 14 259
1978324S10097 1979 126 SI WA NOT_NAMED 1978-11-21 15:00:00 TS -14.0920 90.2770 main 1680 1680 P________PP_P_ SH011979 -14.0850 90.2846 40 0 -14.0850 90.2846 TC 40 -14.1205 90.2542 2 -14.0775 90.2847 TC 37 14 261
1978324S10097 1979 126 SI MM NOT_NAMED 1978-11-21 18:00:00 TS -14.2147 89.5833 main 1734 1734 O________OP_O_ jtwc_sh SH011979 -14.2000 89.6000 40 0 -14.2000 89.6000 TC 40 -14.2588 89.5330 2 -14.2000 89.6000 TC 35 13 255
1978324S10097 1979 126 SI MM NOT_NAMED 1978-11-21 21:00:00 TS -14.4300 88.9390 main 1798 1798 P________PP_P_ SH011979 -14.4176 88.9453 37 0 -14.4176 88.9453 TC 37 -14.4674 88.9204 2 -14.4176 88.9453 TC 35 12 241
1978324S10097 1979 126 SI MM NOT_NAMED 1978-11-22 00:00:00 TS -14.8000 88.5000 main 1859 1859 O________OO_O_ jtwc_sh SH011979 -14.8000 88.5000 35 0 -14.8000 88.5000 TC 35 -14.8000 88.5000 2 -14.8000 88.5000 TC 35 11 209
1978324S10097 1979 126 SI MM NOT_NAMED 1978-11-22 03:00:00 TS -15.3779 88.3902 main 1919 1919 P________PP_P_ SH011979 -15.3973 88.3948 35 0 -15.3973 88.3948 TC 35 -15.3197 88.3765 2 -15.3973 88.3948 TC 35 13 180
1978324S10097 1979 126 SI MM NOT_NAMED 1978-11-22 06:00:00 TS -16.0660 88.4864 main 1975 1975 O________OP_O_ jtwc_sh SH011979 -16.1000 88.5000 35 0 -16.1000 88.5000 TC 35 -15.9642 88.4454 2 -16.1000 88.5000 TC 35 14 170
1978324S10097 1979 126 SI MM NOT_NAMED 1978-11-22 09:00:00 TS -16.7317 88.6359 main 2023 2023 P________PP_P_ SH011979 -16.7500 88.6422 35 0 -16.7500 88.6422 TC 35 -16.6765 88.6169 2 -16.7500 88.6422 TC 35 14 167
1978324S10097 1979 126 SI MM NOT_NAMED 1978-11-22 12:00:00 TS -17.4000 88.8000 main 2076 2076 O________OO_O_ jtwc_sh SH011979 -17.4000 88.8000 35 0 -17.4000 88.8000 TC 35 -17.4000 88.8000 2 35 -17.4000 88.8000 TC 35 14 170
1978324S10097 1979 126 SI MM NOT_NAMED 1978-11-22 15:00:00 TS -18.0598 88.8792 main 2136 2136 P________PP_P_ SH011979 -18.0500 88.8652 35 0 -18.0500 88.8652 TC 35 -18.0894 88.9213 2 35 -18.0500 88.8652 TC 35 13 175
1978324S10097 1979 126 SI MM NOT_NAMED 1978-11-22 18:00:00 TS -18.7112 88.9204 main 2194 2194 O________OP_O_ jtwc_sh SH011979 -18.7000 88.9000 35 0 -18.7000 88.9000 TC 35 -18.7450 88.9817 2 35 -18.7000 88.9000 TC 35 13 176
1978324S10097 1979 126 SI MM NOT_NAMED 1978-11-22 21:00:00 TS -19.3570 88.9589 main 2248 2248 P________PP_P_ SH011979 -19.3500 88.9448 35 0 -19.3500 88.9448 TC 35 -19.3781 89.0011 2 35 -19.3500 88.9448 TC 35 13 176
1978324S10097 1979 126 SI MM NOT_NAMED 1978-11-23 00:00:00 TS -20.0000 89.0000 main 2289 O________OO_O_ jtwc_sh SH011979 -20.0000 89.0000 35 0 -20.0000 89.0000 TC 35 -20.0000 89.0000 2 35 -20.0000 89.0000 TC 35 13 177

About IBTrACS Database

This database is a web-friendly format of International Best Track Archive for Climate Stewardship (IBTrACS), a global best track data archive curated by NOAA dating back to 1842.

Updated: 2021-11-26